Belfry, Kentucky
Current Conditions -  °F | °C
As of 5:35 AM on Wednesday 22 Oct 2014 (Local Time) from KPBX Reporting Station
Overcast Overcast  
Wind Chill: 39°   Ceiling: 1200
Heat Index: 42°   Visibility: 10mi
Dew Point: 40°   Wind: 6mph
Humidity: 90%   Direction: 340°NNW
Pressure: 30.14"   Gusts: NA
Location:  37.62°N, 82.27°W
Report Text: KPBX 220935Z AUTO 34005KT 10SM BKN012 OVC017 06/04 A3014 RMK AO2 LTG DSNT E T00570042
Loading
Personal Weather Stations






























Interactive Weather Map
Tropical Storm Tracking
New forecast layout! Learn more

10-Day Weather Forecast

Advertisements
Track Severe Weather on mobile